Bellvue, Colorado
Current Conditions -  °F | °C
As of 2:55 PM on Saturday 25 Oct 2014 (Local Time) from KFNL Reporting Station
Clear Clear  
Wind Chill: 81°   Ceiling: Unl
Heat Index: 81°   Visibility: 10mi
Dew Point: 27°   Wind: 12mph
Humidity: 14%   Direction: 160°SSE
Pressure: 30.09"   Gusts: NA
Location:  40.63°N, 105.17°W
Report Text: KFNL 252055Z AUTO 16010KT 10SM CLR 27/M03 A3009 RMK AO1 57037
Loading
Personal Weather Stations






























Interactive Weather Map
Tropical Storm Tracking
New forecast layout! Learn more

10-Day Weather Forecast

Advertisements
Track Severe Weather on mobile